sensor_id;sensor_type;location;lat;lon;timestamp;P1;durP1;ratioP1;P2;durP2;ratioP2
64188;SDS011;50493;50.970;10.082;2024-03-22T00:00:30;8.15;;;4.30;;
64188;SDS011;50493;50.970;10.082;2024-03-22T00:02:56;7.55;;;4.38;;
64188;SDS011;50493;50.970;10.082;2024-03-22T00:05:21;8.40;;;4.07;;
64188;SDS011;50493;50.970;10.082;2024-03-22T00:07:47;8.18;;;4.20;;
64188;SDS011;50493;50.970;10.082;2024-03-22T00:10:12;7.22;;;4.78;;
64188;SDS011;50493;50.970;10.082;2024-03-22T00:12:38;7.78;;;4.20;;
64188;SDS011;50493;50.970;10.082;2024-03-22T00:15:04;8.25;;;4.30;;
64188;SDS011;50493;50.970;10.082;2024-03-22T00:17:32;7.38;;;4.30;;
64188;SDS011;50493;50.970;10.082;2024-03-22T00:19:58;8.20;;;4.10;;
64188;SDS011;50493;50.970;10.082;2024-03-22T00:22:23;6.75;;;4.10;;
64188;SDS011;50493;50.970;10.082;2024-03-22T00:24:49;6.82;;;4.03;;
64188;SDS011;50493;50.970;10.082;2024-03-22T00:27:14;9.73;;;4.28;;
64188;SDS011;50493;50.970;10.082;2024-03-22T00:29:39;7.47;;;4.20;;
64188;SDS011;50493;50.970;10.082;2024-03-22T00:32:05;9.70;;;4.30;;
64188;SDS011;50493;50.970;10.082;2024-03-22T00:34:33;6.88;;;4.03;;
64188;SDS011;50493;50.970;10.082;2024-03-22T00:36:59;8.20;;;4.00;;
64188;SDS011;50493;50.970;10.082;2024-03-22T00:39:24;9.63;;;4.40;;
64188;SDS011;50493;50.970;10.082;2024-03-22T00:41:49;8.07;;;4.22;;
64188;SDS011;50493;50.970;10.082;2024-03-22T00:44:15;7.50;;;4.28;;
64188;SDS011;50493;50.970;10.082;2024-03-22T00:46:40;8.30;;;4.18;;
64188;SDS011;50493;50.970;10.082;2024-03-22T00:49:05;9.00;;;4.10;;
64188;SDS011;50493;50.970;10.082;2024-03-22T00:51:32;8.23;;;4.15;;
64188;SDS011;50493;50.970;10.082;2024-03-22T00:53:57;8.40;;;4.32;;
64188;SDS011;50493;50.970;10.082;2024-03-22T00:56:23;8.63;;;4.35;;
64188;SDS011;50493;50.970;10.082;2024-03-22T00:58:48;8.52;;;4.30;;
64188;SDS011;50493;50.970;10.082;2024-03-22T01:01:13;8.93;;;4.18;;
64188;SDS011;50493;50.970;10.082;2024-03-22T01:03:39;8.27;;;4.68;;
64188;SDS011;50493;50.970;10.082;2024-03-22T01:06:04;7.75;;;4.18;;
64188;SDS011;50493;50.970;10.082;2024-03-22T01:08:31;8.32;;;4.18;;
64188;SDS011;50493;50.970;10.082;2024-03-22T01:10:56;8.63;;;4.55;;
64188;SDS011;50493;50.970;10.082;2024-03-22T01:13:21;7.75;;;4.20;;
64188;SDS011;50493;50.970;10.082;2024-03-22T01:15:47;8.18;;;4.28;;
64188;SDS011;50493;50.970;10.082;2024-03-22T01:18:12;9.50;;;4.53;;
64188;SDS011;50493;50.970;10.082;2024-03-22T01:20:38;7.00;;;4.10;;
64188;SDS011;50493;50.970;10.082;2024-03-22T01:23:03;9.80;;;4.10;;
64188;SDS011;50493;50.970;10.082;2024-03-22T01:25:30;7.35;;;4.15;;
64188;SDS011;50493;50.970;10.082;2024-03-22T01:27:56;8.52;;;4.43;;
64188;SDS011;50493;50.970;10.082;2024-03-22T01:30:21;8.48;;;4.10;;
64188;SDS011;50493;50.970;10.082;2024-03-22T01:32:47;10.50;;;4.50;;
64188;SDS011;50493;50.970;10.082;2024-03-22T01:35:12;7.90;;;4.15;;
64188;SDS011;50493;50.970;10.082;2024-03-22T01:37:37;9.63;;;4.15;;
64188;SDS011;50493;50.970;10.082;2024-03-22T01:40:03;6.95;;;3.90;;
64188;SDS011;50493;50.970;10.082;2024-03-22T01:42:31;7.95;;;4.18;;
64188;SDS011;50493;50.970;10.082;2024-03-22T01:44:56;8.93;;;4.30;;
64188;SDS011;50493;50.970;10.082;2024-03-22T01:47:21;7.55;;;3.97;;
64188;SDS011;50493;50.970;10.082;2024-03-22T01:49:47;8.73;;;4.30;;
64188;SDS011;50493;50.970;10.082;2024-03-22T01:52:14;8.23;;;4.00;;
64188;SDS011;50493;50.970;10.082;2024-03-22T01:54:39;9.43;;;4.88;;
64188;SDS011;50493;50.970;10.082;2024-03-22T01:57:05;8.25;;;4.25;;
64188;SDS011;50493;50.970;10.082;2024-03-22T01:59:32;7.45;;;4.50;;
64188;SDS011;50493;50.970;10.082;2024-03-22T02:01:58;9.00;;;4.40;;
64188;SDS011;50493;50.970;10.082;2024-03-22T02:04:24;8.18;;;4.18;;
64188;SDS011;50493;50.970;10.082;2024-03-22T02:06:49;8.02;;;4.18;;
64188;SDS011;50493;50.970;10.082;2024-03-22T02:09:15;8.23;;;4.60;;
64188;SDS011;50493;50.970;10.082;2024-03-22T02:11:40;8.43;;;4.35;;
64188;SDS011;50493;50.970;10.082;2024-03-22T02:14:07;7.72;;;4.43;;
64188;SDS011;50493;50.970;10.082;2024-03-22T02:16:34;8.55;;;4.13;;
64188;SDS011;50493;50.970;10.082;2024-03-22T02:18:59;7.85;;;4.43;;
64188;SDS011;50493;50.970;10.082;2024-03-22T02:21:24;9.00;;;4.22;;
64188;SDS011;50493;50.970;10.082;2024-03-22T02:23:51;10.07;;;4.50;;
64188;SDS011;50493;50.970;10.082;2024-03-22T02:26:16;7.00;;;4.25;;
64188;SDS011;50493;50.970;10.082;2024-03-22T02:28:42;8.43;;;4.55;;
64188;SDS011;50493;50.970;10.082;2024-03-22T02:31:07;8.35;;;4.53;;
64188;SDS011;50493;50.970;10.082;2024-03-22T02:33:32;8.90;;;4.65;;
64188;SDS011;50493;50.970;10.082;2024-03-22T02:35:58;8.63;;;4.38;;
64188;SDS011;50493;50.970;10.082;2024-03-22T02:38:23;9.65;;;4.43;;
64188;SDS011;50493;50.970;10.082;2024-03-22T02:40:52;8.43;;;4.47;;
64188;SDS011;50493;50.970;10.082;2024-03-22T02:43:18;8.18;;;4.55;;
64188;SDS011;50493;50.970;10.082;2024-03-22T02:45:46;9.18;;;5.13;;
64188;SDS011;50493;50.970;10.082;2024-03-22T02:48:11;10.35;;;4.88;;
64188;SDS011;50493;50.970;10.082;2024-03-22T02:50:37;10.95;;;4.90;;
64188;SDS011;50493;50.970;10.082;2024-03-22T02:53:03;9.52;;;4.90;;
64188;SDS011;50493;50.970;10.082;2024-03-22T02:55:29;10.90;;;4.85;;
64188;SDS011;50493;50.970;10.082;2024-03-22T02:57:56;8.52;;;4.70;;
64188;SDS011;50493;50.970;10.082;2024-03-22T03:00:23;9.52;;;4.90;;
64188;SDS011;50493;50.970;10.082;2024-03-22T03:02:48;10.73;;;5.03;;
64188;SDS011;50493;50.970;10.082;2024-03-22T03:05:14;10.27;;;5.57;;
64188;SDS011;50493;50.970;10.082;2024-03-22T03:07:40;9.70;;;4.97;;
64188;SDS011;50493;50.970;10.082;2024-03-22T03:10:05;13.52;;;5.18;;
64188;SDS011;50493;50.970;10.082;2024-03-22T03:12:31;11.05;;;5.00;;
64188;SDS011;50493;50.970;10.082;2024-03-22T03:14:58;8.15;;;4.43;;
64188;SDS011;50493;50.970;10.082;2024-03-22T03:17:23;11.60;;;4.95;;
64188;SDS011;50493;50.970;10.082;2024-03-22T03:19:49;9.13;;;5.00;;
64188;SDS011;50493;50.970;10.082;2024-03-22T03:22:14;9.73;;;4.80;;
64188;SDS011;50493;50.970;10.082;2024-03-22T03:24:40;10.13;;;5.43;;
64188;SDS011;50493;50.970;10.082;2024-03-22T03:27:05;9.25;;;4.93;;
64188;SDS011;50493;50.970;10.082;2024-03-22T03:29:31;10.60;;;4.97;;
64188;SDS011;50493;50.970;10.082;2024-03-22T03:31:57;10.40;;;5.70;;
64188;SDS011;50493;50.970;10.082;2024-03-22T03:34:23;10.35;;;5.70;;
64188;SDS011;50493;50.970;10.082;2024-03-22T03:36:48;12.00;;;5.25;;
64188;SDS011;50493;50.970;10.082;2024-03-22T03:39:13;10.70;;;5.40;;
64188;SDS011;50493;50.970;10.082;2024-03-22T03:41:39;11.40;;;5.65;;
64188;SDS011;50493;50.970;10.082;2024-03-22T03:44:04;10.57;;;5.53;;
64188;SDS011;50493;50.970;10.082;2024-03-22T03:46:30;12.27;;;5.90;;
64188;SDS011;50493;50.970;10.082;2024-03-22T03:48:56;11.52;;;5.65;;
64188;SDS011;50493;50.970;10.082;2024-03-22T03:51:22;9.90;;;5.30;;
64188;SDS011;50493;50.970;10.082;2024-03-22T03:53:47;11.05;;;5.93;;
64188;SDS011;50493;50.970;10.082;2024-03-22T03:56:12;9.57;;;5.53;;
64188;SDS011;50493;50.970;10.082;2024-03-22T03:58:38;11.32;;;6.03;;
64188;SDS011;50493;50.970;10.082;2024-03-22T04:01:04;12.00;;;5.97;;
64188;SDS011;50493;50.970;10.082;2024-03-22T04:03:30;11.20;;;6.20;;
64188;SDS011;50493;50.970;10.082;2024-03-22T04:05:57;10.70;;;5.88;;
64188;SDS011;50493;50.970;10.082;2024-03-22T04:08:23;9.43;;;5.20;;
64188;SDS011;50493;50.970;10.082;2024-03-22T04:10:50;12.80;;;5.95;;
64188;SDS011;50493;50.970;10.082;2024-03-22T04:13:16;13.45;;;5.88;;
64188;SDS011;50493;50.970;10.082;2024-03-22T04:15:42;11.07;;;5.63;;
64188;SDS011;50493;50.970;10.082;2024-03-22T04:18:07;10.65;;;5.20;;
64188;SDS011;50493;50.970;10.082;2024-03-22T04:20:32;9.07;;;5.10;;
64188;SDS011;50493;50.970;10.082;2024-03-22T04:22:59;10.38;;;5.22;;
64188;SDS011;50493;50.970;10.082;2024-03-22T04:25:24;10.90;;;5.72;;
64188;SDS011;50493;50.970;10.082;2024-03-22T04:27:50;10.13;;;5.40;;
64188;SDS011;50493;50.970;10.082;2024-03-22T04:30:15;8.80;;;5.07;;
64188;SDS011;50493;50.970;10.082;2024-03-22T04:32:40;10.70;;;5.20;;
64188;SDS011;50493;50.970;10.082;2024-03-22T04:35:06;10.30;;;5.28;;
64188;SDS011;50493;50.970;10.082;2024-03-22T04:37:31;9.65;;;5.68;;
64188;SDS011;50493;50.970;10.082;2024-03-22T04:39:58;9.73;;;5.35;;
64188;SDS011;50493;50.970;10.082;2024-03-22T04:42:23;10.38;;;5.63;;
64188;SDS011;50493;50.970;10.082;2024-03-22T04:44:49;9.48;;;4.70;;
64188;SDS011;50493;50.970;10.082;2024-03-22T04:47:14;10.40;;;5.38;;
64188;SDS011;50493;50.970;10.082;2024-03-22T04:49:39;12.07;;;5.47;;
64188;SDS011;50493;50.970;10.082;2024-03-22T04:52:05;10.55;;;5.13;;
64188;SDS011;50493;50.970;10.082;2024-03-22T04:54:30;8.80;;;4.95;;
64188;SDS011;50493;50.970;10.082;2024-03-22T04:56:57;10.15;;;5.97;;
64188;SDS011;50493;50.970;10.082;2024-03-22T04:59:22;10.25;;;5.85;;
64188;SDS011;50493;50.970;10.082;2024-03-22T05:01:48;9.82;;;5.50;;
64188;SDS011;50493;50.970;10.082;2024-03-22T05:04:13;12.70;;;5.55;;
64188;SDS011;50493;50.970;10.082;2024-03-22T05:06:38;10.57;;;5.90;;
64188;SDS011;50493;50.970;10.082;2024-03-22T05:09:03;10.85;;;5.40;;
64188;SDS011;50493;50.970;10.082;2024-03-22T05:11:29;11.20;;;5.72;;
64188;SDS011;50493;50.970;10.082;2024-03-22T05:13:57;10.20;;;5.80;;
64188;SDS011;50493;50.970;10.082;2024-03-22T05:16:22;10.63;;;5.90;;
64188;SDS011;50493;50.970;10.082;2024-03-22T05:18:48;11.48;;;6.00;;
64188;SDS011;50493;50.970;10.082;2024-03-22T05:21:14;10.85;;;5.53;;
64188;SDS011;50493;50.970;10.082;2024-03-22T05:23:39;12.52;;;5.50;;
64188;SDS011;50493;50.970;10.082;2024-03-22T05:26:04;11.68;;;5.80;;
64188;SDS011;50493;50.970;10.082;2024-03-22T05:28:30;11.30;;;5.68;;
64188;SDS011;50493;50.970;10.082;2024-03-22T05:30:57;12.27;;;6.70;;
64188;SDS011;50493;50.970;10.082;2024-03-22T05:33:22;13.40;;;6.00;;
64188;SDS011;50493;50.970;10.082;2024-03-22T05:35:47;11.35;;;6.07;;
64188;SDS011;50493;50.970;10.082;2024-03-22T05:38:13;10.02;;;5.40;;
64188;SDS011;50493;50.970;10.082;2024-03-22T05:40:38;11.98;;;6.25;;
64188;SDS011;50493;50.970;10.082;2024-03-22T05:43:03;10.63;;;5.47;;
64188;SDS011;50493;50.970;10.082;2024-03-22T05:45:29;11.77;;;5.82;;
64188;SDS011;50493;50.970;10.082;2024-03-22T05:47:55;10.50;;;5.70;;
64188;SDS011;50493;50.970;10.082;2024-03-22T05:50:21;10.25;;;5.50;;
64188;SDS011;50493;50.970;10.082;2024-03-22T05:52:46;9.73;;;5.72;;
64188;SDS011;50493;50.970;10.082;2024-03-22T05:55:11;14.05;;;6.57;;
64188;SDS011;50493;50.970;10.082;2024-03-22T05:57:37;9.40;;;5.72;;
64188;SDS011;50493;50.970;10.082;2024-03-22T06:00:02;10.80;;;6.03;;
64188;SDS011;50493;50.970;10.082;2024-03-22T06:02:28;12.93;;;5.80;;
64188;SDS011;50493;50.970;10.082;2024-03-22T06:04:55;11.88;;;6.18;;
64188;SDS011;50493;50.970;10.082;2024-03-22T06:07:20;11.40;;;5.93;;
64188;SDS011;50493;50.970;10.082;2024-03-22T06:09:45;12.10;;;5.97;;
64188;SDS011;50493;50.970;10.082;2024-03-22T06:12:11;14.95;;;6.78;;
64188;SDS011;50493;50.970;10.082;2024-03-22T06:14:36;12.32;;;6.80;;
64188;SDS011;50493;50.970;10.082;2024-03-22T06:17:03;13.02;;;7.30;;
64188;SDS011;50493;50.970;10.082;2024-03-22T06:19:28;15.27;;;7.10;;
64188;SDS011;50493;50.970;10.082;2024-03-22T06:21:55;14.95;;;6.80;;
64188;SDS011;50493;50.970;10.082;2024-03-22T06:24:21;12.35;;;6.82;;
64188;SDS011;50493;50.970;10.082;2024-03-22T06:26:46;13.77;;;7.07;;
64188;SDS011;50493;50.970;10.082;2024-03-22T06:29:11;13.80;;;6.75;;
64188;SDS011;50493;50.970;10.082;2024-03-22T06:31:37;12.50;;;7.03;;
64188;SDS011;50493;50.970;10.082;2024-03-22T06:34:03;13.43;;;6.78;;
64188;SDS011;50493;50.970;10.082;2024-03-22T06:36:29;13.20;;;7.05;;
64188;SDS011;50493;50.970;10.082;2024-03-22T06:38:57;13.13;;;6.70;;
64188;SDS011;50493;50.970;10.082;2024-03-22T06:41:24;14.18;;;7.07;;
64188;SDS011;50493;50.970;10.082;2024-03-22T06:43:50;13.27;;;6.65;;
64188;SDS011;50493;50.970;10.082;2024-03-22T06:46:16;11.95;;;6.78;;
64188;SDS011;50493;50.970;10.082;2024-03-22T06:48:41;14.15;;;7.22;;
64188;SDS011;50493;50.970;10.082;2024-03-22T06:51:07;13.57;;;7.55;;
64188;SDS011;50493;50.970;10.082;2024-03-22T06:53:32;15.82;;;7.07;;
64188;SDS011;50493;50.970;10.082;2024-03-22T06:55:59;15.30;;;7.38;;
64188;SDS011;50493;50.970;10.082;2024-03-22T06:58:24;13.02;;;7.00;;
64188;SDS011;50493;50.970;10.082;2024-03-22T07:00:50;14.30;;;7.47;;
64188;SDS011;50493;50.970;10.082;2024-03-22T07:03:15;13.80;;;6.80;;
64188;SDS011;50493;50.970;10.082;2024-03-22T07:05:42;13.32;;;7.05;;
64188;SDS011;50493;50.970;10.082;2024-03-22T07:08:07;13.90;;;7.03;;
64188;SDS011;50493;50.970;10.082;2024-03-22T07:10:33;13.82;;;7.00;;
64188;SDS011;50493;50.970;10.082;2024-03-22T07:12:59;13.60;;;7.25;;
64188;SDS011;50493;50.970;10.082;2024-03-22T07:15:25;26.20;;;12.50;;
64188;SDS011;50493;50.970;10.082;2024-03-22T07:17:50;21.80;;;8.88;;
64188;SDS011;50493;50.970;10.082;2024-03-22T07:20:16;22.23;;;10.77;;
64188;SDS011;50493;50.970;10.082;2024-03-22T07:22:41;11.77;;;6.60;;
64188;SDS011;50493;50.970;10.082;2024-03-22T07:25:07;18.70;;;9.63;;
64188;SDS011;50493;50.970;10.082;2024-03-22T07:27:34;26.25;;;12.50;;
64188;SDS011;50493;50.970;10.082;2024-03-22T07:30:01;17.88;;;9.60;;
64188;SDS011;50493;50.970;10.082;2024-03-22T07:32:26;27.05;;;13.88;;
64188;SDS011;50493;50.970;10.082;2024-03-22T07:34:52;27.60;;;12.85;;
64188;SDS011;50493;50.970;10.082;2024-03-22T07:37:17;27.52;;;12.82;;
64188;SDS011;50493;50.970;10.082;2024-03-22T07:39:42;30.27;;;13.43;;
64188;SDS011;50493;50.970;10.082;2024-03-22T07:42:08;28.02;;;13.13;;
64188;SDS011;50493;50.970;10.082;2024-03-22T07:44:33;23.80;;;11.50;;
64188;SDS011;50493;50.970;10.082;2024-03-22T07:47:00;21.48;;;10.68;;
64188;SDS011;50493;50.970;10.082;2024-03-22T07:49:25;20.77;;;11.25;;
64188;SDS011;50493;50.970;10.082;2024-03-22T07:51:50;17.55;;;9.52;;
64188;SDS011;50493;50.970;10.082;2024-03-22T07:54:18;13.38;;;7.97;;
64188;SDS011;50493;50.970;10.082;2024-03-22T07:56:43;26.15;;;13.82;;
64188;SDS011;50493;50.970;10.082;2024-03-22T07:59:09;25.92;;;13.35;;
64188;SDS011;50493;50.970;10.082;2024-03-22T08:01:34;23.80;;;11.23;;
64188;SDS011;50493;50.970;10.082;2024-03-22T08:04:01;32.55;;;16.85;;
64188;SDS011;50493;50.970;10.082;2024-03-22T08:06:26;26.13;;;12.70;;
64188;SDS011;50493;50.970;10.082;2024-03-22T08:08:51;17.50;;;9.13;;
64188;SDS011;50493;50.970;10.082;2024-03-22T08:11:17;36.35;;;19.88;;
64188;SDS011;50493;50.970;10.082;2024-03-22T08:13:42;16.00;;;8.40;;
64188;SDS011;50493;50.970;10.082;2024-03-22T08:16:08;17.00;;;8.80;;
64188;SDS011;50493;50.970;10.082;2024-03-22T08:18:33;32.80;;;13.38;;
64188;SDS011;50493;50.970;10.082;2024-03-22T08:21:00;37.80;;;20.10;;
64188;SDS011;50493;50.970;10.082;2024-03-22T08:23:25;23.08;;;10.13;;
64188;SDS011;50493;50.970;10.082;2024-03-22T08:25:50;34.72;;;16.20;;
64188;SDS011;50493;50.970;10.082;2024-03-22T08:28:16;32.22;;;14.38;;
64188;SDS011;50493;50.970;10.082;2024-03-22T08:30:42;36.75;;;15.52;;
64188;SDS011;50493;50.970;10.082;2024-03-22T08:33:08;31.75;;;13.70;;
64188;SDS011;50493;50.970;10.082;2024-03-22T08:35:34;32.58;;;13.77;;
64188;SDS011;50493;50.970;10.082;2024-03-22T08:38:01;29.70;;;12.77;;
64188;SDS011;50493;50.970;10.082;2024-03-22T08:40:26;21.92;;;10.57;;
64188;SDS011;50493;50.970;10.082;2024-03-22T08:42:52;33.38;;;13.95;;
64188;SDS011;50493;50.970;10.082;2024-03-22T08:45:17;28.00;;;12.02;;
64188;SDS011;50493;50.970;10.082;2024-03-22T08:47:43;29.63;;;12.88;;
64188;SDS011;50493;50.970;10.082;2024-03-22T08:50:11;32.38;;;12.98;;
64188;SDS011;50493;50.970;10.082;2024-03-22T08:52:36;30.75;;;13.30;;
64188;SDS011;50493;50.970;10.082;2024-03-22T08:55:04;26.65;;;11.93;;
64188;SDS011;50493;50.970;10.082;2024-03-22T08:57:32;27.27;;;11.98;;
64188;SDS011;50493;50.970;10.082;2024-03-22T08:59:58;27.63;;;12.40;;
64188;SDS011;50493;50.970;10.082;2024-03-22T09:02:23;27.25;;;12.27;;
64188;SDS011;50493;50.970;10.082;2024-03-22T09:04:49;26.52;;;11.90;;
64188;SDS011;50493;50.970;10.082;2024-03-22T09:07:14;22.40;;;10.40;;
64188;SDS011;50493;50.970;10.082;2024-03-22T09:09:40;28.02;;;12.15;;
64188;SDS011;50493;50.970;10.082;2024-03-22T09:12:07;21.40;;;9.57;;
64188;SDS011;50493;50.970;10.082;2024-03-22T09:14:32;22.65;;;10.60;;
64188;SDS011;50493;50.970;10.082;2024-03-22T09:16:58;23.45;;;10.18;;
64188;SDS011;50493;50.970;10.082;2024-03-22T09:19:23;22.75;;;10.70;;
64188;SDS011;50493;50.970;10.082;2024-03-22T09:21:49;25.17;;;12.18;;
64188;SDS011;50493;50.970;10.082;2024-03-22T09:24:14;23.98;;;10.50;;
64188;SDS011;50493;50.970;10.082;2024-03-22T09:26:39;24.17;;;10.73;;
64188;SDS011;50493;50.970;10.082;2024-03-22T09:29:07;23.88;;;11.15;;
64188;SDS011;50493;50.970;10.082;2024-03-22T09:31:33;24.60;;;10.43;;
64188;SDS011;50493;50.970;10.082;2024-03-22T09:33:58;21.15;;;10.52;;
64188;SDS011;50493;50.970;10.082;2024-03-22T09:36:24;26.25;;;10.90;;
64188;SDS011;50493;50.970;10.082;2024-03-22T09:38:49;19.42;;;10.10;;
64188;SDS011;50493;50.970;10.082;2024-03-22T09:41:15;22.15;;;9.85;;
64188;SDS011;50493;50.970;10.082;2024-03-22T09:43:45;20.58;;;10.07;;
64188;SDS011;50493;50.970;10.082;2024-03-22T09:46:16;23.63;;;10.52;;
64188;SDS011;50493;50.970;10.082;2024-03-22T09:48:44;22.25;;;10.68;;
64188;SDS011;50493;50.970;10.082;2024-03-22T09:51:11;20.58;;;10.43;;
64188;SDS011;50493;50.970;10.082;2024-03-22T09:53:37;18.80;;;9.65;;
64188;SDS011;50493;50.970;10.082;2024-03-22T09:56:04;19.00;;;9.52;;
64188;SDS011;50493;50.970;10.082;2024-03-22T09:58:31;18.13;;;9.38;;
64188;SDS011;50493;50.970;10.082;2024-03-22T10:00:56;18.00;;;9.00;;
64188;SDS011;50493;50.970;10.082;2024-03-22T10:03:27;20.50;;;9.30;;
64188;SDS011;50493;50.970;10.082;2024-03-22T10:05:52;19.20;;;9.20;;
64188;SDS011;50493;50.970;10.082;2024-03-22T10:08:17;16.25;;;8.45;;
64188;SDS011;50493;50.970;10.082;2024-03-22T10:10:43;19.77;;;9.57;;
64188;SDS011;50493;50.970;10.082;2024-03-22T10:13:08;17.40;;;9.05;;
64188;SDS011;50493;50.970;10.082;2024-03-22T10:15:34;17.95;;;8.88;;
64188;SDS011;50493;50.970;10.082;2024-03-22T10:17:59;19.98;;;9.40;;
64188;SDS011;50493;50.970;10.082;2024-03-22T10:20:26;20.98;;;9.18;;
64188;SDS011;50493;50.970;10.082;2024-03-22T10:22:55;19.48;;;9.98;;
64188;SDS011;50493;50.970;10.082;2024-03-22T10:25:21;17.70;;;8.52;;
64188;SDS011;50493;50.970;10.082;2024-03-22T10:27:47;19.42;;;8.70;;
64188;SDS011;50493;50.970;10.082;2024-03-22T10:30:13;19.08;;;9.57;;
64188;SDS011;50493;50.970;10.082;2024-03-22T10:32:41;16.58;;;8.05;;
64188;SDS011;50493;50.970;10.082;2024-03-22T10:35:07;17.92;;;8.98;;
64188;SDS011;50493;50.970;10.082;2024-03-22T10:37:37;20.33;;;9.88;;
64188;SDS011;50493;50.970;10.082;2024-03-22T10:40:03;17.20;;;9.40;;
64188;SDS011;50493;50.970;10.082;2024-03-22T10:42:35;18.75;;;9.70;;
64188;SDS011;50493;50.970;10.082;2024-03-22T10:45:01;20.58;;;10.30;;
64188;SDS011;50493;50.970;10.082;2024-03-22T10:47:28;18.15;;;9.23;;
64188;SDS011;50493;50.970;10.082;2024-03-22T10:49:55;18.15;;;9.40;;
64188;SDS011;50493;50.970;10.082;2024-03-22T10:52:29;18.35;;;9.82;;
64188;SDS011;50493;50.970;10.082;2024-03-22T10:54:58;17.45;;;9.48;;
64188;SDS011;50493;50.970;10.082;2024-03-22T10:57:24;20.45;;;9.60;;
64188;SDS011;50493;50.970;10.082;2024-03-22T10:59:49;20.02;;;9.65;;
64188;SDS011;50493;50.970;10.082;2024-03-22T11:02:19;19.42;;;10.13;;
64188;SDS011;50493;50.970;10.082;2024-03-22T11:04:53;18.20;;;9.38;;
64188;SDS011;50493;50.970;10.082;2024-03-22T11:07:19;19.23;;;9.48;;
64188;SDS011;50493;50.970;10.082;2024-03-22T11:09:51;18.77;;;9.40;;
64188;SDS011;50493;50.970;10.082;2024-03-22T11:12:18;18.25;;;9.50;;
64188;SDS011;50493;50.970;10.082;2024-03-22T11:14:45;22.40;;;10.43;;
64188;SDS011;50493;50.970;10.082;2024-03-22T11:17:10;19.38;;;9.30;;
64188;SDS011;50493;50.970;10.082;2024-03-22T11:19:36;17.60;;;9.05;;
64188;SDS011;50493;50.970;10.082;2024-03-22T11:22:04;16.48;;;9.00;;
64188;SDS011;50493;50.970;10.082;2024-03-22T11:24:32;19.10;;;9.60;;
64188;SDS011;50493;50.970;10.082;2024-03-22T11:26:58;18.48;;;8.88;;
64188;SDS011;50493;50.970;10.082;2024-03-22T11:29:25;18.52;;;8.98;;
64188;SDS011;50493;50.970;10.082;2024-03-22T11:31:50;16.25;;;9.13;;
64188;SDS011;50493;50.970;10.082;2024-03-22T11:34:16;16.73;;;8.25;;
64188;SDS011;50493;50.970;10.082;2024-03-22T11:36:41;16.90;;;8.68;;
64188;SDS011;50493;50.970;10.082;2024-03-22T11:39:06;16.05;;;8.45;;
64188;SDS011;50493;50.970;10.082;2024-03-22T11:41:32;13.27;;;8.27;;
64188;SDS011;50493;50.970;10.082;2024-03-22T11:43:59;14.75;;;8.30;;
64188;SDS011;50493;50.970;10.082;2024-03-22T11:46:26;15.52;;;8.23;;
64188;SDS011;50493;50.970;10.082;2024-03-22T11:48:53;14.45;;;8.50;;
64188;SDS011;50493;50.970;10.082;2024-03-22T11:51:19;12.63;;;6.05;;
64188;SDS011;50493;50.970;10.082;2024-03-22T11:53:48;11.10;;;7.00;;
64188;SDS011;50493;50.970;10.082;2024-03-22T11:56:15;13.63;;;7.20;;
64188;SDS011;50493;50.970;10.082;2024-03-22T11:58:42;12.27;;;7.00;;
64188;SDS011;50493;50.970;10.082;2024-03-22T12:01:08;12.23;;;6.75;;
64188;SDS011;50493;50.970;10.082;2024-03-22T12:03:35;11.98;;;6.30;;
64188;SDS011;50493;50.970;10.082;2024-03-22T12:06:00;10.38;;;6.28;;
64188;SDS011;50493;50.970;10.082;2024-03-22T12:08:25;14.00;;;6.75;;
64188;SDS011;50493;50.970;10.082;2024-03-22T12:10:51;13.52;;;6.80;;
64188;SDS011;50493;50.970;10.082;2024-03-22T12:13:16;10.73;;;6.10;;
64188;SDS011;50493;50.970;10.082;2024-03-22T12:15:41;11.18;;;5.68;;
64188;SDS011;50493;50.970;10.082;2024-03-22T12:18:07;11.27;;;6.03;;
64188;SDS011;50493;50.970;10.082;2024-03-22T12:20:33;12.02;;;6.50;;
64188;SDS011;50493;50.970;10.082;2024-03-22T12:22:59;9.30;;;5.30;;
64188;SDS011;50493;50.970;10.082;2024-03-22T12:25:24;9.90;;;5.68;;
64188;SDS011;50493;50.970;10.082;2024-03-22T12:27:49;9.80;;;5.72;;
64188;SDS011;50493;50.970;10.082;2024-03-22T12:30:15;12.48;;;6.18;;
64188;SDS011;50493;50.970;10.082;2024-03-22T12:32:40;10.63;;;5.72;;
64188;SDS011;50493;50.970;10.082;2024-03-22T12:35:06;11.43;;;6.32;;
64188;SDS011;50493;50.970;10.082;2024-03-22T12:37:34;10.13;;;6.10;;
64188;SDS011;50493;50.970;10.082;2024-03-22T12:40:00;11.27;;;5.43;;
64188;SDS011;50493;50.970;10.082;2024-03-22T12:42:26;10.13;;;5.63;;
64188;SDS011;50493;50.970;10.082;2024-03-22T12:44:51;10.27;;;5.57;;
64188;SDS011;50493;50.970;10.082;2024-03-22T12:47:16;8.65;;;5.55;;
64188;SDS011;50493;50.970;10.082;2024-03-22T12:49:42;11.70;;;5.38;;
64188;SDS011;50493;50.970;10.082;2024-03-22T12:52:07;9.60;;;5.35;;
64188;SDS011;50493;50.970;10.082;2024-03-22T12:54:34;10.00;;;5.30;;
64188;SDS011;50493;50.970;10.082;2024-03-22T12:57:00;9.32;;;5.57;;
64188;SDS011;50493;50.970;10.082;2024-03-22T12:59:25;9.38;;;5.32;;
64188;SDS011;50493;50.970;10.082;2024-03-22T13:01:51;9.20;;;5.43;;
64188;SDS011;50493;50.970;10.082;2024-03-22T13:04:18;10.02;;;6.10;;
64188;SDS011;50493;50.970;10.082;2024-03-22T13:06:43;10.07;;;5.65;;
64188;SDS011;50493;50.970;10.082;2024-03-22T13:09:09;11.23;;;5.95;;
64188;SDS011;50493;50.970;10.082;2024-03-22T13:11:35;10.38;;;5.78;;
64188;SDS011;50493;50.970;10.082;2024-03-22T13:14:02;8.52;;;5.03;;
64188;SDS011;50493;50.970;10.082;2024-03-22T13:16:27;9.65;;;5.45;;
64188;SDS011;50493;50.970;10.082;2024-03-22T13:18:52;10.20;;;5.68;;
64188;SDS011;50493;50.970;10.082;2024-03-22T13:21:18;10.82;;;6.13;;
64188;SDS011;50493;50.970;10.082;2024-03-22T13:23:44;12.15;;;6.18;;
64188;SDS011;50493;50.970;10.082;2024-03-22T13:26:09;10.88;;;5.63;;
64188;SDS011;50493;50.970;10.082;2024-03-22T13:28:36;11.30;;;5.63;;
64188;SDS011;50493;50.970;10.082;2024-03-22T13:31:01;12.13;;;6.97;;
64188;SDS011;50493;50.970;10.082;2024-03-22T13:33:28;10.77;;;6.22;;
64188;SDS011;50493;50.970;10.082;2024-03-22T13:35:53;12.10;;;6.07;;
64188;SDS011;50493;50.970;10.082;2024-03-22T13:38:18;9.85;;;6.30;;
64188;SDS011;50493;50.970;10.082;2024-03-22T13:40:43;13.80;;;7.25;;
64188;SDS011;50493;50.970;10.082;2024-03-22T13:43:17;12.35;;;6.97;;
64188;SDS011;50493;50.970;10.082;2024-03-22T13:45:44;13.68;;;5.72;;
64188;SDS011;50493;50.970;10.082;2024-03-22T13:48:10;10.75;;;5.63;;
64188;SDS011;50493;50.970;10.082;2024-03-22T13:50:37;11.88;;;6.82;;
64188;SDS011;50493;50.970;10.082;2024-03-22T13:53:03;12.70;;;7.18;;
64188;SDS011;50493;50.970;10.082;2024-03-22T13:55:28;12.40;;;6.75;;
64188;SDS011;50493;50.970;10.082;2024-03-22T13:57:54;12.82;;;7.35;;
64188;SDS011;50493;50.970;10.082;2024-03-22T14:00:19;15.93;;;8.15;;
64188;SDS011;50493;50.970;10.082;2024-03-22T14:02:46;12.65;;;7.28;;
64188;SDS011;50493;50.970;10.082;2024-03-22T14:05:17;12.02;;;6.50;;
64188;SDS011;50493;50.970;10.082;2024-03-22T14:07:42;17.50;;;9.35;;
64188;SDS011;50493;50.970;10.082;2024-03-22T14:10:08;11.50;;;6.75;;
64188;SDS011;50493;50.970;10.082;2024-03-22T14:12:33;11.32;;;6.88;;
64188;SDS011;50493;50.970;10.082;2024-03-22T14:14:59;13.07;;;7.68;;